createdAt,value
2023-04-24T00:01:10.467Z,97438.00
2023-04-24T00:03:40.094Z,97423.00
2023-04-24T00:06:09.166Z,97435.00
2023-04-24T00:08:37.391Z,97440.00
2023-04-24T00:11:05.606Z,97439.00
2023-04-24T00:13:33.639Z,97435.00
2023-04-24T00:16:01.724Z,97422.00
2023-04-24T00:18:31.133Z,97432.00
2023-04-24T00:20:59.789Z,97421.00
2023-04-24T00:23:27.838Z,97419.00
2023-04-24T00:25:55.875Z,97412.00
2023-04-24T00:28:23.915Z,97415.00
2023-04-24T00:30:51.954Z,97420.00
2023-04-24T00:33:19.972Z,97426.00
2023-04-24T00:35:49.376Z,97431.00
2023-04-24T00:38:17.479Z,97428.00
2023-04-24T00:40:45.632Z,97428.00
2023-04-24T00:43:13.693Z,97421.00
2023-04-24T00:45:41.729Z,97421.00
2023-04-24T00:48:09.801Z,97419.00
2023-04-24T00:50:38.118Z,97409.00
2023-04-24T00:53:07.655Z,97406.00
2023-04-24T00:55:35.729Z,97413.00
2023-04-24T00:58:03.785Z,97402.00
2023-04-24T01:00:32.024Z,97411.00
2023-04-24T01:03:00.504Z,97420.00
2023-04-24T01:05:28.697Z,97427.00
2023-04-24T01:07:56.708Z,97422.00
2023-04-24T01:10:26.162Z,97433.00
2023-04-24T01:12:54.192Z,97419.00
2023-04-24T01:15:22.349Z,97422.00
2023-04-24T01:17:51.144Z,97427.00
2023-04-24T01:20:20.183Z,97428.00
2023-04-24T01:22:49.574Z,97420.00
2023-04-24T01:25:17.626Z,97415.00
2023-04-24T01:27:45.701Z,97419.00
2023-04-24T01:30:14.770Z,97411.00
2023-04-24T01:32:42.954Z,97408.00
2023-04-24T01:35:11.166Z,97408.00
2023-04-24T01:37:39.286Z,97427.00
2023-04-24T01:40:10.066Z,97419.00
2023-04-24T01:42:38.115Z,97402.00
2023-04-24T01:45:07.267Z,97413.00
2023-04-24T01:47:35.337Z,97412.00
2023-04-24T01:50:03.389Z,97407.00
2023-04-24T01:52:32.306Z,97406.00
2023-04-24T01:55:01.746Z,97406.00
2023-04-24T01:57:31.576Z,97410.00
2023-04-24T01:59:59.609Z,97418.00
2023-04-24T02:02:28.700Z,97424.00
2023-04-24T02:04:56.927Z,97417.00
2023-04-24T02:07:24.981Z,97411.00
2023-04-24T02:09:53.020Z,97397.00
2023-04-24T02:12:21.065Z,97399.00
2023-04-24T02:14:50.474Z,97404.00
2023-04-24T02:17:20.233Z,97398.00
2023-04-24T02:19:48.346Z,97390.00
2023-04-24T02:22:16.417Z,97386.00
2023-04-24T02:24:44.487Z,97382.00
2023-04-24T02:27:12.658Z,97385.00
2023-04-24T02:29:40.980Z,97380.00
2023-04-24T02:32:12.996Z,97374.00
2023-04-24T02:34:41.208Z,97370.00
2023-04-24T02:37:09.252Z,97379.00
2023-04-24T02:39:37.357Z,97371.00
2023-04-24T02:42:05.652Z,97375.00
2023-04-24T02:44:33.701Z,97368.00
2023-04-24T02:47:01.730Z,97369.00
2023-04-24T02:49:31.155Z,97373.00
2023-04-24T02:51:59.197Z,97369.00
2023-04-24T02:54:27.295Z,97378.00
2023-04-24T02:56:55.343Z,97364.00
2023-04-24T02:59:23.646Z,97361.00
2023-04-24T03:01:51.650Z,97359.00
2023-04-24T03:04:21.435Z,97356.00
2023-04-24T03:06:52.770Z,97353.00
2023-04-24T03:09:20.853Z,97351.00
2023-04-24T03:11:49.664Z,97354.00
2023-04-24T03:14:17.721Z,97352.00
2023-04-24T03:16:45.781Z,97358.00
2023-04-24T03:19:13.937Z,97354.00
2023-04-24T03:21:42.104Z,97358.00
2023-04-24T03:24:11.504Z,97369.00
2023-04-24T03:26:39.541Z,97361.00
2023-04-24T03:29:07.614Z,97367.00
2023-04-24T03:31:35.873Z,97362.00
2023-04-24T03:34:04.016Z,97355.00
2023-04-24T03:36:32.661Z,97369.00
2023-04-24T03:39:00.752Z,97356.00
2023-04-24T03:41:31.207Z,97358.00
2023-04-24T03:43:59.251Z,97359.00
2023-04-24T03:46:27.361Z,97370.00
2023-04-24T03:48:55.410Z,97365.00
2023-04-24T03:51:23.884Z,97376.00
2023-04-24T03:53:51.940Z,97375.00
2023-04-24T03:56:19.981Z,97366.00
2023-04-24T03:58:49.416Z,97369.00
2023-04-24T04:01:18.018Z,97363.00
2023-04-24T04:03:46.807Z,97365.00
2023-04-24T04:06:14.933Z,97360.00
2023-04-24T04:08:42.997Z,97363.00
2023-04-24T04:11:12.165Z,97361.00
2023-04-24T04:13:40.245Z,97364.00
2023-04-24T04:16:10.613Z,97360.00
2023-04-24T04:18:38.803Z,97359.00
2023-04-24T04:21:06.867Z,97371.00
2023-04-24T04:23:35.336Z,97369.00
2023-04-24T04:26:04.235Z,97372.00
2023-04-24T04:28:32.637Z,97366.00
2023-04-24T04:31:00.680Z,97366.00
2023-04-24T04:33:30.072Z,97364.00
2023-04-24T04:35:59.766Z,97368.00
2023-04-24T04:38:30.919Z,97369.00
2023-04-24T04:40:59.102Z,97367.00
2023-04-24T04:43:27.267Z,97375.00
2023-04-24T04:45:55.971Z,97372.00
2023-04-24T04:48:24.058Z,97368.00
2023-04-24T04:50:53.555Z,97373.00
2023-04-24T04:53:21.624Z,97375.00
2023-04-24T04:55:49.697Z,97372.00
2023-04-24T04:58:18.562Z,97378.00
2023-04-24T05:00:47.307Z,97379.00
2023-04-24T05:05:47.578Z,97375.00
2023-04-24T05:08:26.485Z,97370.00
2023-04-24T05:10:55.856Z,97387.00
2023-04-24T05:13:35.553Z,97378.00
2023-04-24T05:16:07.001Z,97392.00
2023-04-24T05:18:35.123Z,97380.00
2023-04-24T05:21:03.430Z,97399.00
2023-04-24T05:23:32.892Z,97406.00
2023-04-24T05:26:00.960Z,97405.00
2023-04-24T05:28:29.424Z,97396.00
2023-04-24T05:30:57.976Z,97405.00
2023-04-24T05:33:26.703Z,97407.00
2023-04-24T05:35:55.304Z,97406.00
2023-04-24T05:38:23.812Z,97405.00
2023-04-24T05:40:53.681Z,97420.00
2023-04-24T05:43:21.771Z,97401.00
2023-04-24T05:45:49.824Z,97410.00
2023-04-24T05:48:17.888Z,97423.00
2023-04-24T05:50:45.972Z,97417.00
2023-04-24T05:53:14.053Z,97423.00
2023-04-24T05:55:42.302Z,97426.00
2023-04-24T05:58:11.715Z,97429.00
2023-04-24T06:00:40.898Z,97446.00
2023-04-24T06:03:09.444Z,97451.00
2023-04-24T06:05:37.773Z,97454.00
2023-04-24T06:08:06.183Z,97452.00
2023-04-24T06:10:34.283Z,97436.00
2023-04-24T06:13:02.360Z,97436.00
2023-04-24T06:15:32.515Z,97429.00
2023-04-24T06:18:00.646Z,97431.00
2023-04-24T06:20:28.942Z,97444.00
2023-04-24T06:22:57.109Z,97446.00
2023-04-24T06:25:27.259Z,97445.00
2023-04-24T06:27:55.578Z,97449.00
2023-04-24T06:30:23.898Z,97446.00
2023-04-24T06:32:53.661Z,97447.00
2023-04-24T06:35:24.835Z,97448.00
2023-04-24T06:37:53.116Z,97448.00
2023-04-24T06:40:21.171Z,97447.00
2023-04-24T06:42:49.386Z,97448.00
2023-04-24T06:45:17.686Z,97448.00
2023-04-24T06:47:46.032Z,97450.00
2023-04-24T06:50:15.490Z,97457.00
2023-04-24T06:52:43.528Z,97456.00
2023-04-24T06:55:12.238Z,97464.00
2023-04-24T06:57:40.317Z,97473.00
2023-04-24T07:00:10.423Z,97472.00
2023-04-24T07:02:38.696Z,97465.00
2023-04-24T07:05:07.926Z,97483.00
2023-04-24T07:07:38.858Z,97468.00
2023-04-24T07:10:08.001Z,97474.00
2023-04-24T07:12:36.724Z,97471.00
2023-04-24T07:15:06.192Z,97493.00
2023-04-24T07:17:34.418Z,97482.00
2023-04-24T07:20:02.603Z,97483.00
2023-04-24T07:22:30.877Z,97499.00
2023-04-24T07:25:00.377Z,97484.00
2023-04-24T07:27:28.428Z,97492.00
2023-04-24T07:29:56.482Z,97494.00
2023-04-24T07:32:24.534Z,97495.00
2023-04-24T07:34:52.622Z,97491.00
2023-04-24T07:37:21.235Z,97495.00
2023-04-24T07:39:49.447Z,97498.00
2023-04-24T07:42:18.969Z,97499.00
2023-04-24T07:44:47.733Z,97498.00
2023-04-24T07:47:16.894Z,97489.00
2023-04-24T07:49:45.285Z,97489.00
2023-04-24T07:52:13.666Z,97505.00
2023-04-24T07:54:42.005Z,97511.00
2023-04-24T07:57:10.345Z,97498.00
2023-04-24T07:59:39.803Z,97509.00
2023-04-24T08:02:08.112Z,97510.00
2023-04-24T08:04:36.425Z,97503.00
2023-04-24T08:07:05.135Z,97533.00
2023-04-24T08:09:33.302Z,97529.00
2023-04-24T08:12:02.330Z,97525.00
2023-04-24T08:14:33.208Z,97529.00
2023-04-24T08:17:03.517Z,97534.00
2023-04-24T08:19:31.626Z,97540.00
2023-04-24T08:21:59.751Z,97544.00
2023-04-24T08:24:27.819Z,97545.00
2023-04-24T08:26:57.791Z,97557.00
2023-04-24T08:29:26.263Z,97557.00
2023-04-24T08:31:55.638Z,97547.00
2023-04-24T08:34:25.312Z,97556.00
2023-04-24T08:37:01.035Z,97547.00
2023-04-24T08:39:29.180Z,97535.00
2023-04-24T08:41:57.543Z,97546.00
2023-04-24T08:44:25.605Z,97546.00
2023-04-24T08:46:56.692Z,97551.00
2023-04-24T08:49:26.306Z,97548.00
2023-04-24T08:51:54.749Z,97542.00
2023-04-24T08:54:22.850Z,97547.00
2023-04-24T08:56:51.279Z,97559.00
2023-04-24T08:59:19.358Z,97551.00
2023-04-24T09:01:47.922Z,97561.00
2023-04-24T09:04:17.316Z,97552.00
2023-04-24T09:06:47.102Z,97550.00
2023-04-24T09:09:15.175Z,97549.00
2023-04-24T09:11:43.237Z,97542.00
2023-04-24T09:14:11.828Z,97548.00
2023-04-24T09:16:39.953Z,97550.00
2023-04-24T09:19:08.041Z,97552.00
2023-04-24T09:21:36.458Z,97555.00
2023-04-24T09:24:07.050Z,97563.00
2023-04-24T09:26:37.300Z,97563.00
2023-04-24T09:29:06.052Z,97561.00
2023-04-24T09:31:34.231Z,97563.00
2023-04-24T09:34:05.745Z,97561.00
2023-04-24T09:36:38.268Z,97554.00
2023-04-24T09:39:09.240Z,97561.00
2023-04-24T09:41:37.740Z,97564.00
2023-04-24T09:44:13.646Z,97569.00
2023-04-24T09:46:41.799Z,97567.00
2023-04-24T09:49:10.980Z,97567.00
2023-04-24T09:51:39.620Z,97565.00
2023-04-24T09:54:15.870Z,97567.00
2023-04-24T09:56:45.186Z,97573.00
2023-04-24T09:59:13.305Z,97575.00
2023-04-24T10:01:43.715Z,97582.00
2023-04-24T10:04:18.458Z,97594.00
2023-04-24T10:06:46.661Z,97591.00
2023-04-24T10:09:16.240Z,97573.00
2023-04-24T10:11:46.172Z,97579.00
2023-04-24T10:14:14.940Z,97577.00
2023-04-24T10:16:43.106Z,97582.00
2023-04-24T10:19:11.904Z,97582.00
2023-04-24T10:21:43.391Z,97583.00
2023-04-24T10:24:11.510Z,97594.00
2023-04-24T10:26:41.639Z,97599.00
2023-04-24T10:29:10.914Z,97591.00
2023-04-24T10:31:39.273Z,97595.00
2023-04-24T10:34:07.650Z,97599.00
2023-04-24T10:36:35.905Z,97595.00
2023-04-24T10:39:05.067Z,97593.00
2023-04-24T10:41:33.209Z,97611.00
2023-04-24T10:44:08.124Z,97601.00
2023-04-24T10:46:36.242Z,97596.00
2023-04-24T10:49:07.651Z,97603.00
2023-04-24T10:51:49.638Z,97608.00
2023-04-24T10:54:25.427Z,97615.00
2023-04-24T10:56:53.698Z,97612.00
2023-04-24T10:59:29.409Z,97611.00
2023-04-24T11:01:57.517Z,97613.00
2023-04-24T11:04:36.220Z,97608.00
2023-04-24T11:07:05.133Z,97601.00
2023-04-24T11:09:33.934Z,97601.00
2023-04-24T11:12:07.595Z,97612.00
2023-04-24T11:15:04.539Z,97609.00
2023-04-24T11:17:34.336Z,97618.00
2023-04-24T11:20:18.966Z,97621.00
2023-04-24T11:22:53.210Z,97617.00
2023-04-24T11:25:23.043Z,97629.00
2023-04-24T11:27:51.165Z,97629.00
2023-04-24T11:30:21.509Z,97628.00
2023-04-24T11:32:50.065Z,97627.00
2023-04-24T11:35:19.137Z,97639.00
2023-04-24T11:38:07.871Z,97632.00
2023-04-24T11:40:37.829Z,97619.00
2023-04-24T11:43:07.704Z,97632.00
2023-04-24T11:45:37.678Z,97633.00
2023-04-24T11:48:06.169Z,97644.00
2023-04-24T11:50:34.287Z,97646.00
2023-04-24T11:53:02.384Z,97660.00
2023-04-24T11:55:52.514Z,97669.00
2023-04-24T11:58:22.753Z,97664.00
2023-04-24T12:00:57.949Z,97668.00
2023-04-24T12:03:26.291Z,97677.00
2023-04-24T12:05:54.871Z,97683.00
2023-04-24T12:08:29.533Z,97691.00
2023-04-24T12:10:57.597Z,97690.00
2023-04-24T12:13:25.672Z,97693.00
2023-04-24T12:15:55.205Z,97691.00
2023-04-24T12:18:24.487Z,97687.00
2023-04-24T12:20:52.556Z,97685.00
2023-04-24T12:23:35.653Z,97700.00
2023-04-24T12:26:05.475Z,97694.00
2023-04-24T12:28:37.343Z,97698.00
2023-04-24T12:31:07.124Z,97706.00
2023-04-24T12:33:35.826Z,97702.00
2023-04-24T12:36:04.594Z,97705.00
2023-04-24T12:38:40.968Z,97693.00
2023-04-24T12:41:09.863Z,97698.00
2023-04-24T12:43:38.635Z,97695.00
2023-04-24T12:46:11.508Z,97686.00
2023-04-24T12:48:39.882Z,97686.00
2023-04-24T12:51:08.151Z,97674.00
2023-04-24T12:53:36.315Z,97679.00
2023-04-24T12:56:04.573Z,97675.00
2023-04-24T12:58:33.727Z,97668.00
2023-04-24T13:01:02.963Z,97688.00
2023-04-24T13:03:32.603Z,97695.00
2023-04-24T13:06:00.676Z,97698.00
2023-04-24T13:08:28.912Z,97691.00
2023-04-24T13:10:56.948Z,97689.00
2023-04-24T13:13:25.025Z,97680.00
2023-04-24T13:15:53.167Z,97685.00
2023-04-24T13:18:21.937Z,97677.00
2023-04-24T13:20:51.405Z,97672.00
2023-04-24T13:23:19.381Z,97669.00
2023-04-24T13:25:48.268Z,97671.00
2023-04-24T13:28:16.307Z,97670.00
2023-04-24T13:30:44.432Z,97667.00
2023-04-24T13:33:12.488Z,97666.00
2023-04-24T13:35:40.555Z,97669.00
2023-04-24T13:38:12.650Z,97678.00
2023-04-24T13:40:40.690Z,97671.00
2023-04-24T13:43:13.137Z,97672.00
2023-04-24T13:45:41.413Z,97676.00
2023-04-24T13:48:10.351Z,97670.00
2023-04-24T13:50:38.715Z,97668.00
2023-04-24T13:53:06.769Z,97669.00
2023-04-24T13:55:36.252Z,97678.00
2023-04-24T13:58:04.285Z,97671.00
2023-04-24T14:00:32.279Z,97676.00
2023-04-24T14:03:06.529Z,97681.00
2023-04-24T14:05:36.239Z,97676.00
2023-04-24T14:08:05.362Z,97689.00
2023-04-24T14:10:33.402Z,97686.00
2023-04-24T14:13:03.029Z,97682.00
2023-04-24T14:15:31.088Z,97687.00
2023-04-24T14:17:59.206Z,97690.00
2023-04-24T14:20:27.402Z,97687.00
2023-04-24T14:23:00.062Z,97689.00
2023-04-24T14:25:28.258Z,97685.00
2023-04-24T14:27:59.160Z,97693.00
2023-04-24T14:30:28.919Z,97689.00
2023-04-24T14:32:56.976Z,97694.00
2023-04-24T14:35:25.193Z,97695.00
2023-04-24T14:37:53.351Z,97694.00
2023-04-24T14:40:48.422Z,97693.00
2023-04-24T14:43:10.693Z,97692.00
2023-04-24T14:45:41.950Z,97683.00
2023-04-24T14:48:10.276Z,97690.00
2023-04-24T14:50:38.596Z,97683.00
2023-04-24T14:53:09.602Z,97685.00
2023-04-24T14:55:37.850Z,97691.00
2023-04-24T14:58:06.225Z,97694.00
2023-04-24T15:00:34.261Z,97686.00
2023-04-24T15:03:04.228Z,97695.00
2023-04-24T15:05:32.664Z,97701.00
2023-04-24T15:08:01.020Z,97705.00
2023-04-24T15:10:30.273Z,97716.00
2023-04-24T15:13:00.611Z,97723.00
2023-04-24T15:15:28.819Z,97731.00
2023-04-24T15:17:57.007Z,97729.00
2023-04-24T15:20:26.476Z,97738.00
2023-04-24T15:22:54.584Z,97736.00
2023-04-24T15:25:22.649Z,97743.00
2023-04-24T15:27:50.732Z,97734.00
2023-04-24T15:30:18.793Z,97729.00
2023-04-24T15:32:47.048Z,97735.00
2023-04-24T15:35:15.711Z,97737.00
2023-04-24T15:37:45.170Z,97736.00
2023-04-24T15:40:14.331Z,97738.00
2023-04-24T15:42:42.861Z,97740.00
2023-04-24T15:45:12.003Z,97743.00
2023-04-24T15:47:40.272Z,97744.00
2023-04-24T15:50:12.758Z,97749.00
2023-04-24T15:52:42.614Z,97738.00
2023-04-24T15:55:12.317Z,97745.00
2023-04-24T15:57:40.755Z,97743.00
2023-04-24T16:00:10.945Z,97741.00
2023-04-24T16:02:39.253Z,97743.00
2023-04-24T16:05:08.851Z,97753.00
2023-04-24T16:07:36.982Z,97759.00
2023-04-24T16:10:05.452Z,97752.00
2023-04-24T16:12:34.914Z,97748.00
2023-04-24T16:15:03.364Z,97750.00
2023-04-24T16:17:31.554Z,97744.00
2023-04-24T16:19:59.756Z,97767.00
2023-04-24T16:22:27.793Z,97753.00
2023-04-24T16:24:57.172Z,97752.00
2023-04-24T16:27:25.386Z,97749.00
2023-04-24T16:29:57.106Z,97751.00
2023-04-24T16:32:25.348Z,97765.00
2023-04-24T16:34:53.532Z,97757.00
2023-04-24T16:37:21.641Z,97767.00
2023-04-24T16:39:49.912Z,97771.00
2023-04-24T16:42:18.034Z,97773.00
2023-04-24T16:44:46.128Z,97768.00
2023-04-24T16:47:15.755Z,97769.00
2023-04-24T16:49:45.176Z,97792.00
2023-04-24T16:52:13.315Z,97803.00
2023-04-24T16:54:41.580Z,97804.00
2023-04-24T16:57:09.852Z,97798.00
2023-04-24T16:59:37.880Z,97804.00
2023-04-24T17:02:06.242Z,97788.00
2023-04-24T17:04:36.543Z,97789.00
2023-04-24T17:07:07.812Z,97794.00
2023-04-24T17:09:35.880Z,97810.00
2023-04-24T17:12:04.217Z,97791.00
2023-04-24T17:14:32.429Z,97794.00
2023-04-24T17:17:00.625Z,97785.00
2023-04-24T17:19:28.806Z,97787.00
2023-04-24T17:21:58.791Z,97788.00
2023-04-24T17:24:26.919Z,97791.00
2023-04-24T17:26:58.930Z,97795.00
2023-04-24T17:29:29.674Z,97787.00
2023-04-24T17:31:57.696Z,97790.00
2023-04-24T17:34:25.870Z,97797.00
2023-04-24T17:36:53.921Z,97793.00
2023-04-24T17:39:23.406Z,97796.00
2023-04-24T17:41:51.757Z,97793.00
2023-04-24T17:44:19.775Z,97788.00
2023-04-24T17:46:47.875Z,97799.00
2023-04-24T17:49:16.143Z,97785.00
2023-04-24T17:51:44.244Z,97802.00
2023-04-24T17:54:12.373Z,97815.00
2023-04-24T17:56:42.041Z,97806.00
2023-04-24T17:59:10.162Z,97803.00
2023-04-24T18:01:38.420Z,97799.00
2023-04-24T18:04:06.754Z,97806.00
2023-04-24T18:06:35.132Z,97809.00
2023-04-24T18:09:03.469Z,97812.00
2023-04-24T18:11:31.630Z,97822.00
2023-04-24T18:14:01.098Z,97811.00
2023-04-24T18:16:29.233Z,97815.00
2023-04-24T18:18:57.744Z,97832.00
2023-04-24T18:21:26.742Z,97819.00
2023-04-24T18:23:55.319Z,97821.00
2023-04-24T18:26:23.408Z,97825.00
2023-04-24T18:28:51.611Z,97822.00
2023-04-24T18:31:21.082Z,97829.00
2023-04-24T18:33:49.395Z,97828.00
2023-04-24T18:36:17.478Z,97827.00
2023-04-24T18:38:45.610Z,97833.00
2023-04-24T18:41:14.400Z,97835.00
2023-04-24T18:43:42.686Z,97839.00
2023-04-24T18:46:10.859Z,97846.00
2023-04-24T18:48:40.555Z,97844.00
2023-04-24T18:51:08.903Z,97842.00
2023-04-24T18:53:37.080Z,97836.00
2023-04-24T18:56:05.675Z,97843.00
2023-04-24T18:58:33.797Z,97852.00
2023-04-24T19:01:01.963Z,97848.00
2023-04-24T19:03:32.533Z,97848.00
2023-04-24T19:06:02.203Z,97848.00
2023-04-24T19:08:30.307Z,97862.00
2023-04-24T19:10:58.470Z,97858.00
2023-04-24T19:13:26.676Z,97861.00
2023-04-24T19:15:54.722Z,97880.00
2023-04-24T19:18:22.832Z,97884.00
2023-04-24T19:20:51.021Z,97892.00
2023-04-24T19:23:20.609Z,97882.00
2023-04-24T19:25:49.026Z,97889.00
2023-04-24T19:28:17.215Z,97887.00
2023-04-24T19:30:45.277Z,97893.00
2023-04-24T19:33:13.434Z,97887.00
2023-04-24T19:35:41.925Z,97896.00
2023-04-24T19:38:10.022Z,97886.00
2023-04-24T19:40:39.481Z,97887.00
2023-04-24T19:43:07.567Z,97886.00
2023-04-24T19:45:35.708Z,97889.00
2023-04-24T19:48:03.894Z,97883.00
2023-04-24T19:50:32.121Z,97889.00
2023-04-24T19:53:00.303Z,97883.00
2023-04-24T19:55:28.534Z,97893.00
2023-04-24T19:57:58.014Z,97890.00
2023-04-24T20:00:26.105Z,97877.00
2023-04-24T20:02:54.332Z,97890.00
2023-04-24T20:05:22.752Z,97884.00
2023-04-24T20:07:52.037Z,97882.00
2023-04-24T20:10:20.126Z,97882.00
2023-04-24T20:12:48.162Z,97863.00
2023-04-24T20:15:17.612Z,97870.00
2023-04-24T20:17:45.715Z,97864.00
2023-04-24T20:20:14.081Z,97865.00
2023-04-24T20:22:42.191Z,97875.00
2023-04-24T20:25:11.731Z,97873.00
2023-04-24T20:27:40.516Z,97873.00
2023-04-24T20:30:12.991Z,97873.00
2023-04-24T20:32:42.780Z,97886.00
2023-04-24T20:35:12.011Z,97883.00
2023-04-24T20:37:40.498Z,97875.00
2023-04-24T20:40:09.983Z,97880.00
2023-04-24T20:42:38.387Z,97870.00
2023-04-24T20:45:07.976Z,97868.00
2023-04-24T20:47:36.982Z,97866.00
2023-04-24T20:50:07.925Z,97875.00
2023-04-24T20:52:35.969Z,97869.00
2023-04-24T20:55:04.755Z,97863.00
2023-04-24T20:57:32.894Z,97871.00
2023-04-24T21:00:01.048Z,97869.00
2023-04-24T21:02:29.463Z,97862.00
2023-04-24T21:04:57.686Z,97861.00
2023-04-24T21:07:27.110Z,97865.00
2023-04-24T21:09:55.174Z,97864.00
2023-04-24T21:12:23.211Z,97854.00
2023-04-24T21:14:51.614Z,97853.00
2023-04-24T21:17:19.903Z,97860.00
2023-04-24T21:19:48.064Z,97845.00
2023-04-24T21:22:16.661Z,97847.00
2023-04-24T21:24:46.216Z,97841.00
2023-04-24T21:27:14.262Z,97857.00
2023-04-24T21:29:42.357Z,97837.00
2023-04-24T21:32:10.522Z,97839.00
2023-04-24T21:34:38.675Z,97844.00
2023-04-24T21:37:06.721Z,97849.00
2023-04-24T21:39:34.762Z,97841.00
2023-04-24T21:42:04.312Z,97844.00
2023-04-24T21:44:32.340Z,97846.00
2023-04-24T21:47:00.451Z,97844.00
2023-04-24T21:49:28.518Z,97832.00
2023-04-24T21:51:56.555Z,97835.00
2023-04-24T21:54:24.611Z,97823.00
2023-04-24T21:56:52.685Z,97825.00
2023-04-24T21:59:22.137Z,97829.00
2023-04-24T22:01:50.725Z,97820.00
2023-04-24T22:04:18.985Z,97837.00
2023-04-24T22:06:47.283Z,97834.00
2023-04-24T22:09:15.853Z,97840.00
2023-04-24T22:11:44.049Z,97831.00
2023-04-24T22:14:12.169Z,97824.00
2023-04-24T22:16:42.144Z,97826.00
2023-04-24T22:19:10.251Z,97837.00
2023-04-24T22:21:38.334Z,97827.00
2023-04-24T22:24:06.882Z,97826.00
2023-04-24T22:26:35.033Z,97817.00
2023-04-24T22:29:03.072Z,97817.00
2023-04-24T22:31:31.139Z,97817.00
2023-04-24T22:34:00.622Z,97813.00
2023-04-24T22:36:28.739Z,97820.00
2023-04-24T22:38:56.851Z,97811.00
2023-04-24T22:41:24.938Z,97807.00
2023-04-24T22:43:53.025Z,97810.00
2023-04-24T22:46:21.199Z,97811.00
2023-04-24T22:48:49.460Z,97804.00
2023-04-24T22:51:19.187Z,97807.00
2023-04-24T22:53:49.627Z,97810.00
2023-04-24T22:56:18.068Z,97807.00
2023-04-24T22:58:46.679Z,97810.00
2023-04-24T23:01:14.762Z,97816.00
2023-04-24T23:03:43.506Z,97798.00
2023-04-24T23:06:11.810Z,97801.00
2023-04-24T23:08:41.237Z,97805.00
2023-04-24T23:11:09.292Z,97797.00
2023-04-24T23:13:37.379Z,97796.00
2023-04-24T23:16:06.038Z,97800.00
2023-04-24T23:18:34.096Z,97793.00
2023-04-24T23:21:03.552Z,97794.00
2023-04-24T23:23:31.591Z,97788.00
2023-04-24T23:26:01.029Z,97794.00
2023-04-24T23:28:29.082Z,97784.00
2023-04-24T23:30:57.128Z,97795.00
2023-04-24T23:33:25.220Z,97789.00
2023-04-24T23:35:53.297Z,97781.00
2023-04-24T23:38:21.522Z,97781.00
2023-04-24T23:40:50.672Z,97774.00
2023-04-24T23:43:20.114Z,97768.00
2023-04-24T23:45:48.172Z,97770.00
2023-04-24T23:48:16.762Z,97775.00
2023-04-24T23:50:44.849Z,97767.00
2023-04-24T23:53:12.906Z,97771.00
2023-04-24T23:55:40.941Z,97754.00
2023-04-24T23:58:08.991Z,97772.00
